Time;durP1;ratioP1;P1;durP2;ratioP2;P2;SDS_P1;SDS_P2;PMS_P1;PMS_P2;Temp;Humidity;BMP_temperature;BMP_pressure;BME280_temperature;BME280_humidity;BME280_pressure;Samples;Min_cycle;Max_cycle;Signal;HPM_P1;HPM_P2
2024/01/13 00:01:51;;;;;;;22.52;15.48;;;;;;;;;;4882458;29;20048;-93
2024/01/13 00:04:18;;;;;;;22.77;16.17;;;;;;;;;;4882434;29;20085;-94
2024/01/13 00:06:44;;;;;;;23.20;16.98;;;;;;;;;;4882726;29;20041;-95
2024/01/13 00:09:10;;;;;;;21.10;16.73;;;;;;;;;;4882415;29;20029;-94
2024/01/13 00:11:36;;;;;;;20.48;16.67;;;;;;;;;;4882407;29;20075;-93
2024/01/13 00:14:02;;;;;;;21.30;17.20;;;;;;;;;;4882547;29;20486;-94
2024/01/13 00:16:29;;;;;;;25.52;17.13;;;;;;;;;;4882160;29;20128;-95
2024/01/13 00:18:55;;;;;;;23.67;17.55;;;;;;;;;;4882319;29;20115;-93
2024/01/13 00:21:21;;;;;;;28.92;17.20;;;;;;;;;;4882208;29;20041;-94
2024/01/13 00:23:47;;;;;;;22.38;17.10;;;;;;;;;;4882359;29;20025;-94
2024/01/13 00:26:13;;;;;;;23.83;17.35;;;;;;;;;;4882169;29;20029;-94
2024/01/13 00:28:39;;;;;;;21.70;16.92;;;;;;;;;;4882085;29;20028;-93
2024/01/13 00:31:06;;;;;;;22.77;16.33;;;;;;;;;;4881941;29;20486;-93
2024/01/13 00:33:32;;;;;;;24.83;17.40;;;;;;;;;;4882460;29;20028;-93
2024/01/13 00:35:58;;;;;;;22.67;16.85;;;;;;;;;;4882548;29;20036;-93
2024/01/13 00:38:24;;;;;;;19.08;16.27;;;;;;;;;;4882096;29;20041;-95
2024/01/13 00:40:51;;;;;;;18.58;14.55;;;;;;;;;;4882088;29;20124;-93
2024/01/13 00:43:17;;;;;;;19.70;15.60;;;;;;;;;;4882080;29;20071;-93
2024/01/13 00:45:43;;;;;;;19.20;15.13;;;;;;;;;;4883740;29;20088;-94
2024/01/13 00:48:09;;;;;;;20.35;16.13;;;;;;;;;;4885720;29;20058;-94
2024/01/13 00:50:35;;;;;;;19.58;15.15;;;;;;;;;;4885440;29;20077;-93
2024/01/13 00:53:02;;;;;;;19.33;15.60;;;;;;;;;;4885789;29;20053;-95
2024/01/13 00:55:28;;;;;;;17.67;14.40;;;;;;;;;;4886502;29;20063;-94
2024/01/13 00:57:54;;;;;;;17.65;14.68;;;;;;;;;;4886127;29;20099;-93
2024/01/13 01:00:20;;;;;;;20.33;15.55;;;;;;;;;;4885899;29;20025;-95
2024/01/13 01:02:47;;;;;;;18.60;15.43;;;;;;;;;;4886090;29;20029;-93
2024/01/13 01:05:13;;;;;;;18.63;16.23;;;;;;;;;;4909440;29;20016;-93
2024/01/13 01:07:39;;;;;;;17.08;15.27;;;;;;;;;;4906349;29;20036;-92
2024/01/13 01:10:06;;;;;;;19.08;15.18;;;;;;;;;;4885171;29;20033;-93
2024/01/13 01:12:32;;;;;;;19.52;15.80;;;;;;;;;;4885051;29;20418;-92
2024/01/13 01:14:58;;;;;;;18.63;13.85;;;;;;;;;;4885057;29;20027;-93
2024/01/13 01:17:24;;;;;;;16.98;14.23;;;;;;;;;;4885144;29;20024;-93
2024/01/13 01:19:51;;;;;;;16.75;14.60;;;;;;;;;;4885327;29;20044;-93
2024/01/13 01:22:17;;;;;;;17.95;14.60;;;;;;;;;;4885017;29;20103;-93
2024/01/13 01:24:43;;;;;;;20.05;16.17;;;;;;;;;;4885208;29;20036;-93
2024/01/13 01:27:10;;;;;;;19.30;15.57;;;;;;;;;;4884850;29;20043;-92
2024/01/13 01:29:36;;;;;;;19.52;14.77;;;;;;;;;;4885138;29;20513;-93
2024/01/13 01:32:02;;;;;;;17.02;14.68;;;;;;;;;;4884848;29;20028;-93
2024/01/13 01:34:29;;;;;;;22.40;15.35;;;;;;;;;;4884981;29;20092;-94
2024/01/13 01:36:55;;;;;;;21.95;17.65;;;;;;;;;;4885197;29;20056;-94
2024/01/13 01:39:21;;;;;;;20.63;14.88;;;;;;;;;;4884908;29;20032;-93
2024/01/13 01:41:47;;;;;;;24.40;15.90;;;;;;;;;;4884718;29;20025;-93
2024/01/13 01:44:13;;;;;;;23.05;16.90;;;;;;;;;;4884762;29;20036;-93
2024/01/13 01:46:40;;;;;;;20.35;14.75;;;;;;;;;;4884386;29;20084;-92
2024/01/13 01:49:06;;;;;;;22.67;15.88;;;;;;;;;;4884630;29;20114;-93
2024/01/13 01:51:33;;;;;;;21.88;16.17;;;;;;;;;;4884623;29;20033;-93
2024/01/13 01:54:02;;;;;;;23.40;16.70;;;;;;;;;;4884814;29;20060;-92
2024/01/13 01:56:29;;;;;;;26.30;16.55;;;;;;;;;;4883723;29;20085;-93
2024/01/13 01:58:56;;;;;;;20.85;16.77;;;;;;;;;;4884492;29;20040;-92
2024/01/13 02:01:25;;;;;;;27.08;16.98;;;;;;;;;;4884335;29;20033;-93
2024/01/13 02:03:52;;;;;;;25.10;18.27;;;;;;;;;;4884157;29;20028;-93
2024/01/13 02:06:18;;;;;;;28.30;17.05;;;;;;;;;;4884435;29;20036;-92
2024/01/13 02:08:45;;;;;;;24.83;17.70;;;;;;;;;;4884389;29;20092;-92
2024/01/13 02:11:12;;;;;;;29.27;17.35;;;;;;;;;;4883954;29;20072;-93
2024/01/13 02:13:39;;;;;;;30.05;19.02;;;;;;;;;;4884641;29;20545;-95
2024/01/13 02:16:07;;;;;;;28.65;19.15;;;;;;;;;;4884235;29;20115;-94
2024/01/13 02:18:34;;;;;;;28.90;19.60;;;;;;;;;;4884206;29;20422;-92
2024/01/13 02:21:00;;;;;;;30.27;19.98;;;;;;;;;;4884373;29;20037;-94
2024/01/13 02:23:26;;;;;;;30.77;19.83;;;;;;;;;;4884304;29;20072;-95
2024/01/13 02:25:52;;;;;;;28.27;20.17;;;;;;;;;;4883921;29;20028;-92
2024/01/13 02:28:18;;;;;;;33.50;21.45;;;;;;;;;;4884118;29;20070;-95
2024/01/13 02:30:45;;;;;;;32.72;20.25;;;;;;;;;;4884338;29;20033;-95
2024/01/13 02:33:11;;;;;;;38.40;23.60;;;;;;;;;;4883688;29;20038;-94
2024/01/13 02:35:37;;;;;;;33.80;20.80;;;;;;;;;;4883988;29;20043;-95
2024/01/13 02:38:03;;;;;;;35.55;21.67;;;;;;;;;;4884123;29;20025;-96
2024/01/13 02:40:29;;;;;;;36.05;21.70;;;;;;;;;;4884344;29;20068;-94
2024/01/13 02:42:55;;;;;;;41.30;24.05;;;;;;;;;;4884146;29;20052;-94
2024/01/13 02:45:22;;;;;;;42.17;22.70;;;;;;;;;;4902317;29;20044;-93
2024/01/13 02:47:59;;;;;;;46.03;24.27;;;;;;;;;;4907837;29;20044;-94
2024/01/13 02:50:25;;;;;;;44.67;24.83;;;;;;;;;;4883703;29;20044;-94
2024/01/13 02:52:52;;;;;;;48.75;26.95;;;;;;;;;;4883407;29;20399;-95
2024/01/13 02:55:18;;;;;;;44.45;24.73;;;;;;;;;;4883625;29;20029;-95
2024/01/13 02:57:44;;;;;;;48.30;27.40;;;;;;;;;;4883347;29;20065;-94
2024/01/13 03:00:13;;;;;;;52.38;27.90;;;;;;;;;;4883344;29;20029;-95
2024/01/13 03:02:39;;;;;;;48.20;26.95;;;;;;;;;;4883286;29;20495;-94
2024/01/13 03:05:09;;;;;;;51.70;27.67;;;;;;;;;;4883475;29;20033;-95
2024/01/13 03:07:35;;;;;;;56.50;28.55;;;;;;;;;;4883103;29;20048;-94
2024/01/13 03:10:01;;;;;;;60.22;29.42;;;;;;;;;;4884794;29;20045;-94
2024/01/13 03:12:27;;;;;;;58.60;28.13;;;;;;;;;;4883357;29;20064;-93
2024/01/13 03:14:53;;;;;;;58.22;30.27;;;;;;;;;;4883264;29;20032;-94
2024/01/13 03:17:20;;;;;;;57.50;29.85;;;;;;;;;;4883378;29;20068;-94
2024/01/13 03:19:46;;;;;;;55.13;29.25;;;;;;;;;;4882703;29;20040;-93
2024/01/13 03:22:12;;;;;;;54.50;29.88;;;;;;;;;;4882777;29;20033;-93
2024/01/13 03:24:38;;;;;;;57.67;30.10;;;;;;;;;;4883050;29;20130;-93
2024/01/13 03:27:05;;;;;;;65.90;30.60;;;;;;;;;;4882654;29;20068;-94
2024/01/13 03:29:31;;;;;;;58.70;30.33;;;;;;;;;;4882390;29;20490;-94
2024/01/13 03:31:57;;;;;;;62.65;30.55;;;;;;;;;;4882599;29;20041;-93
2024/01/13 03:34:23;;;;;;;61.10;31.58;;;;;;;;;;4882847;29;20176;-93
2024/01/13 03:36:50;;;;;;;62.78;31.60;;;;;;;;;;4883383;29;20032;-94
2024/01/13 03:39:16;;;;;;;57.60;32.90;;;;;;;;;;4883004;29;20037;-92
2024/01/13 03:41:42;;;;;;;58.20;29.17;;;;;;;;;;4882711;29;20025;-95
2024/01/13 03:44:08;;;;;;;55.90;28.10;;;;;;;;;;4884871;29;20036;-95
2024/01/13 03:46:34;;;;;;;57.72;30.20;;;;;;;;;;4884366;29;20029;-94
2024/01/13 03:49:00;;;;;;;55.55;28.83;;;;;;;;;;4883625;29;20135;-93
2024/01/13 03:51:26;;;;;;;59.45;32.90;;;;;;;;;;4883143;29;20059;-93
2024/01/13 03:53:52;;;;;;;62.63;32.58;;;;;;;;;;4885002;29;20032;-95
2024/01/13 03:56:19;;;;;;;59.80;30.00;;;;;;;;;;4884263;29;20083;-94
2024/01/13 03:58:45;;;;;;;55.97;30.05;;;;;;;;;;4883874;29;20096;-94
2024/01/13 04:01:11;;;;;;;56.88;28.80;;;;;;;;;;4884418;29;20478;-93
2024/01/13 04:03:37;;;;;;;56.70;28.48;;;;;;;;;;4884778;29;20031;-93
2024/01/13 04:06:07;;;;;;;62.08;31.42;;;;;;;;;;4884239;29;20501;-93
2024/01/13 04:08:34;;;;;;;61.05;28.80;;;;;;;;;;4884413;29;20493;-93
2024/01/13 04:11:00;;;;;;;59.78;31.38;;;;;;;;;;4883798;29;20064;-94
2024/01/13 04:13:26;;;;;;;58.90;29.77;;;;;;;;;;4884377;29;20037;-94
2024/01/13 04:15:52;;;;;;;59.10;30.50;;;;;;;;;;4884920;29;20032;-94
2024/01/13 04:18:19;;;;;;;55.85;29.27;;;;;;;;;;4884974;29;20028;-94
2024/01/13 04:20:45;;;;;;;50.97;27.65;;;;;;;;;;4887805;29;20069;-94
2024/01/13 04:23:11;;;;;;;56.47;29.35;;;;;;;;;;4888530;29;20025;-94
2024/01/13 04:25:37;;;;;;;62.78;30.65;;;;;;;;;;4901948;29;20040;-94
2024/01/13 04:28:03;;;;;;;51.50;28.40;;;;;;;;;;4910130;29;20042;-93
2024/01/13 04:30:30;;;;;;;59.05;30.05;;;;;;;;;;4893154;29;20073;-93
2024/01/13 04:32:57;;;;;;;56.20;28.65;;;;;;;;;;4887797;29;20076;-93
2024/01/13 04:35:23;;;;;;;54.55;31.45;;;;;;;;;;4886784;29;20032;-94
2024/01/13 04:37:49;;;;;;;52.75;29.85;;;;;;;;;;4886210;29;20032;-94
2024/01/13 04:40:15;;;;;;;57.13;29.45;;;;;;;;;;4885728;29;20033;-94
2024/01/13 04:42:42;;;;;;;52.75;31.58;;;;;;;;;;4885652;29;20033;-94
2024/01/13 04:45:08;;;;;;;53.65;30.10;;;;;;;;;;4886536;29;20048;-94
2024/01/13 04:47:35;;;;;;;53.92;28.50;;;;;;;;;;4885917;29;20024;-95
2024/01/13 04:50:01;;;;;;;56.95;31.10;;;;;;;;;;4886359;29;20168;-94
2024/01/13 04:52:27;;;;;;;59.65;31.13;;;;;;;;;;4885680;29;20606;-95
2024/01/13 04:54:53;;;;;;;56.17;28.75;;;;;;;;;;4885833;29;20024;-94
2024/01/13 04:57:19;;;;;;;54.83;31.65;;;;;;;;;;4886208;29;20390;-95
2024/01/13 04:59:46;;;;;;;55.88;33.50;;;;;;;;;;4902437;29;20060;-94
2024/01/13 05:02:13;;;;;;;51.30;31.25;;;;;;;;;;4885563;29;20065;-94
2024/01/13 05:04:39;;;;;;;49.17;29.45;;;;;;;;;;4885691;29;20025;-94
2024/01/13 05:07:07;;;;;;;47.75;29.38;;;;;;;;;;4885547;29;20033;-95
2024/01/13 05:09:33;;;;;;;50.10;29.10;;;;;;;;;;4885267;29;20028;-95
2024/01/13 05:12:00;;;;;;;53.05;25.95;;;;;;;;;;4885961;29;20103;-94
2024/01/13 05:14:26;;;;;;;51.45;28.65;;;;;;;;;;4885254;29;20028;-94
2024/01/13 05:16:52;;;;;;;47.30;27.95;;;;;;;;;;4885220;29;20084;-94
2024/01/13 05:19:18;;;;;;;54.72;30.67;;;;;;;;;;4885379;29;20036;-95
2024/01/13 05:21:44;;;;;;;46.95;29.15;;;;;;;;;;4885804;29;20497;-94
2024/01/13 05:24:13;;;;;;;49.83;28.63;;;;;;;;;;4885212;29;20024;-93
2024/01/13 05:26:39;;;;;;;51.33;29.33;;;;;;;;;;4885472;29;20041;-95
2024/01/13 05:29:06;;;;;;;49.40;28.85;;;;;;;;;;4884937;29;20028;-94
2024/01/13 05:31:32;;;;;;;48.42;28.77;;;;;;;;;;4884382;29;20071;-95
2024/01/13 05:33:58;;;;;;;45.63;26.60;;;;;;;;;;4884740;29;20028;-92
2024/01/13 05:36:24;;;;;;;45.65;26.38;;;;;;;;;;4885943;29;20130;-94
2024/01/13 05:38:50;;;;;;;46.42;28.13;;;;;;;;;;4885726;29;20153;-94
2024/01/13 05:41:17;;;;;;;48.22;28.55;;;;;;;;;;4886340;29;20029;-94
2024/01/13 05:43:44;;;;;;;47.65;30.10;;;;;;;;;;4885046;29;20127;-94
2024/01/13 05:46:13;;;;;;;48.63;27.50;;;;;;;;;;4884715;29;20084;-95
2024/01/13 05:48:40;;;;;;;46.78;28.85;;;;;;;;;;4884949;29;20083;-94
2024/01/13 05:51:08;;;;;;;44.33;28.50;;;;;;;;;;4884863;29;20410;-94
2024/01/13 05:53:34;;;;;;;46.63;26.85;;;;;;;;;;4884570;29;20061;-93
2024/01/13 05:56:00;;;;;;;49.47;29.00;;;;;;;;;;4884779;29;20487;-94
2024/01/13 05:58:27;;;;;;;45.00;27.48;;;;;;;;;;4885081;29;20033;-94
2024/01/13 06:00:53;;;;;;;48.30;27.05;;;;;;;;;;4885168;29;20060;-94
2024/01/13 06:03:19;;;;;;;45.60;27.38;;;;;;;;;;4885909;29;20489;-94
2024/01/13 06:05:45;;;;;;;46.92;27.15;;;;;;;;;;4893484;29;20044;-94
2024/01/13 06:08:12;;;;;;;41.28;26.13;;;;;;;;;;4924654;29;20013;-92
2024/01/13 06:10:38;;;;;;;45.08;29.70;;;;;;;;;;4897167;29;20059;-93
2024/01/13 06:13:05;;;;;;;43.05;27.45;;;;;;;;;;4884574;29;20398;-94
2024/01/13 06:15:31;;;;;;;39.15;26.65;;;;;;;;;;4884266;29;20035;-95
2024/01/13 06:17:57;;;;;;;37.85;25.83;;;;;;;;;;4884302;29;20044;-95
2024/01/13 06:20:24;;;;;;;42.17;25.65;;;;;;;;;;4884459;29;20032;-93
2024/01/13 06:22:50;;;;;;;38.60;24.30;;;;;;;;;;4884154;29;20043;-95
2024/01/13 06:25:17;;;;;;;37.63;25.02;;;;;;;;;;4884588;29;20028;-93
2024/01/13 06:27:43;;;;;;;33.58;23.27;;;;;;;;;;4884337;29;20485;-96
2024/01/13 06:30:10;;;;;;;38.45;24.23;;;;;;;;;;4884191;29;20032;-95
2024/01/13 06:32:37;;;;;;;34.42;23.63;;;;;;;;;;4884150;29;20032;-95
2024/01/13 06:35:03;;;;;;;34.08;23.38;;;;;;;;;;4884332;29;20048;-95
2024/01/13 06:37:29;;;;;;;33.20;23.77;;;;;;;;;;4896977;29;20040;-94
2024/01/13 06:39:56;;;;;;;31.30;21.08;;;;;;;;;;4883672;29;20032;-95
2024/01/13 06:42:22;;;;;;;33.10;24.55;;;;;;;;;;4883988;29;20035;-95
2024/01/13 06:44:49;;;;;;;31.23;22.70;;;;;;;;;;4883733;29;20087;-94
2024/01/13 06:47:15;;;;;;;34.25;23.92;;;;;;;;;;4883441;29;20025;-94
2024/01/13 06:49:41;;;;;;;37.40;25.02;;;;;;;;;;4883767;29;20135;-95
2024/01/13 06:52:09;;;;;;;31.00;19.30;;;;;;;;;;4883898;29;20071;-94
2024/01/13 06:54:35;;;;;;;35.50;23.90;;;;;;;;;;4884078;29;20048;-94
2024/01/13 06:57:01;;;;;;;34.20;22.73;;;;;;;;;;4884189;29;20041;-93
2024/01/13 06:59:28;;;;;;;37.45;23.00;;;;;;;;;;4883562;29;20109;-95
2024/01/13 07:01:54;;;;;;;35.33;23.70;;;;;;;;;;4885355;29;20037;-96
2024/01/13 07:04:20;;;;;;;32.35;24.77;;;;;;;;;;4883698;29;20020;-93
2024/01/13 07:06:47;;;;;;;27.50;21.50;;;;;;;;;;4889670;29;20040;-95
2024/01/13 07:09:19;;;;;;;28.92;21.02;;;;;;;;;;4888803;29;20025;-96
2024/01/13 07:11:48;;;;;;;29.42;22.80;;;;;;;;;;4884122;29;20053;-93
2024/01/13 07:14:15;;;;;;;30.98;21.83;;;;;;;;;;4886350;29;20036;-94
2024/01/13 07:16:41;;;;;;;28.38;21.58;;;;;;;;;;4890386;29;20212;-95
2024/01/13 07:19:10;;;;;;;28.67;20.52;;;;;;;;;;4890953;29;20039;-96
2024/01/13 07:21:36;;;;;;;27.90;19.92;;;;;;;;;;4888325;29;20097;-96
2024/01/13 07:24:03;;;;;;;27.10;18.98;;;;;;;;;;4886148;29;20071;-95
2024/01/13 07:26:29;;;;;;;26.42;20.70;;;;;;;;;;4884114;29;20056;-93
2024/01/13 07:28:55;;;;;;;26.50;18.25;;;;;;;;;;4882590;29;20135;-92
2024/01/13 07:37:58;;;;;;;24.80;19.17;;;;;;;;;;4901996;29;20069;-94
2024/01/13 07:40:24;;;;;;;29.17;20.83;;;;;;;;;;4883485;29;20273;-93
2024/01/13 07:57:14;;;;;;;21.80;17.80;;;;;;;;;;4869959;29;20095;-95
2024/01/13 08:14:27;;;;;;;27.43;18.50;;;;;;;;;;5176665;23;20116;-95
2024/01/13 08:16:58;;;;;;;26.08;17.77;;;;;;;;;;4851469;29;20108;-96
2024/01/13 08:19:24;;;;;;;29.05;19.30;;;;;;;;;;4853445;29;20017;-95
2024/01/13 08:21:51;;;;;;;27.85;19.60;;;;;;;;;;4855565;29;20045;-96
2024/01/13 08:24:17;;;;;;;30.13;21.33;;;;;;;;;;4862223;29;20124;-96
2024/01/13 08:26:43;;;;;;;28.50;20.10;;;;;;;;;;4866692;29;20037;-94
2024/01/13 08:29:10;;;;;;;28.90;19.75;;;;;;;;;;4864943;29;20041;-95
2024/01/13 08:31:36;;;;;;;26.67;18.30;;;;;;;;;;4863545;29;20052;-93
2024/01/13 08:34:02;;;;;;;27.88;19.23;;;;;;;;;;4880643;23;20144;-94
2024/01/13 08:36:28;;;;;;;28.02;18.85;;;;;;;;;;4867709;29;20180;-94
2024/01/13 08:38:54;;;;;;;25.73;19.55;;;;;;;;;;4882388;29;20145;-92
2024/01/13 08:41:20;;;;;;;25.50;17.38;;;;;;;;;;4881602;29;20032;-95
2024/01/13 08:43:48;;;;;;;26.75;18.50;;;;;;;;;;4881749;29;20051;-94
2024/01/13 08:46:14;;;;;;;27.30;17.95;;;;;;;;;;4881883;29;20050;-95
2024/01/13 08:48:40;;;;;;;120.40;22.88;;;;;;;;;;4882121;29;20054;-93
2024/01/13 08:51:08;;;;;;;22.20;16.20;;;;;;;;;;4881945;29;20406;-96
2024/01/13 08:53:34;;;;;;;25.90;18.27;;;;;;;;;;4878789;29;20041;-94
2024/01/13 08:56:09;;;;;;;25.90;18.02;;;;;;;;;;4864915;29;20047;-96
2024/01/13 08:58:36;;;;;;;29.75;19.30;;;;;;;;;;4864780;29;20033;-94
2024/01/13 09:01:02;;;;;;;28.02;20.25;;;;;;;;;;4868063;29;20033;-95
2024/01/13 09:03:29;;;;;;;22.77;18.08;;;;;;;;;;4865293;29;20120;-92
2024/01/13 09:05:55;;;;;;;31.20;17.23;;;;;;;;;;4864269;29;20045;-95
2024/01/13 09:08:30;;;;;;;27.17;18.58;;;;;;;;;;4873177;29;20478;-93
2024/01/13 09:10:56;;;;;;;25.02;18.27;;;;;;;;;;4869368;29;20453;-94
2024/01/13 09:13:22;;;;;;;24.45;15.85;;;;;;;;;;4866771;29;20028;-94
2024/01/13 09:15:49;;;;;;;25.67;18.73;;;;;;;;;;4866240;29;20036;-92
2024/01/13 09:18:15;;;;;;;28.33;19.73;;;;;;;;;;4866081;29;20039;-95
2024/01/13 09:20:41;;;;;;;27.88;19.55;;;;;;;;;;4867009;29;20084;-95
2024/01/13 09:23:13;;;;;;;26.45;20.08;;;;;;;;;;4877921;29;20056;-95
2024/01/13 09:25:40;;;;;;;31.95;19.60;;;;;;;;;;4885295;29;20028;-94
2024/01/13 09:28:06;;;;;;;32.72;18.92;;;;;;;;;;4881931;29;20096;-94
2024/01/13 09:30:32;;;;;;;29.77;19.20;;;;;;;;;;4899972;29;20032;-93
2024/01/13 09:32:58;;;;;;;34.65;19.05;;;;;;;;;;4901706;29;20033;-93
2024/01/13 09:35:30;;;;;;;26.98;18.42;;;;;;;;;;4805886;29;2362494;-95
2024/01/13 09:37:57;;;;;;;28.25;17.23;;;;;;;;;;4886373;29;20039;-95
2024/01/13 09:40:23;;;;;;;28.48;19.42;;;;;;;;;;4889074;29;20035;-94
2024/01/13 09:42:55;;;;;;;27.77;17.70;;;;;;;;;;4872154;29;20057;-95
2024/01/13 09:45:25;;;;;;;23.73;18.80;;;;;;;;;;4882426;29;20083;-95
2024/01/13 09:48:03;;;;;;;21.88;17.20;;;;;;;;;;4867455;29;20036;-94
2024/01/13 09:50:30;;;;;;;23.48;17.90;;;;;;;;;;4867089;29;20163;-95
2024/01/13 09:52:57;;;;;;;29.83;18.35;;;;;;;;;;4866508;29;20040;-94
2024/01/13 09:55:24;;;;;;;24.75;18.15;;;;;;;;;;4868293;29;20166;-95
2024/01/13 09:57:51;;;;;;;29.75;20.27;;;;;;;;;;4885930;29;20047;-93
2024/01/13 10:00:30;;;;;;;32.03;21.30;;;;;;;;;;4871550;29;20483;-96
2024/01/13 10:02:58;;;;;;;27.83;20.50;;;;;;;;;;4871312;29;20033;-96
2024/01/13 10:08:43;;;;;;;26.17;18.35;;;;;;;;;;4836033;29;20034;-96
2024/01/13 10:11:12;;;;;;;25.35;18.38;;;;;;;;;;4868125;29;20071;-95
2024/01/13 10:13:38;;;;;;;26.20;16.98;;;;;;;;;;4869250;29;20066;-96
2024/01/13 10:16:04;;;;;;;27.25;18.92;;;;;;;;;;4866605;29;20036;-93
2024/01/13 10:18:34;;;;;;;25.27;17.42;;;;;;;;;;4881299;29;20032;-95
2024/01/13 10:21:05;;;;;;;23.33;19.23;;;;;;;;;;4885425;29;20068;-92
2024/01/13 10:23:34;;;;;;;24.67;17.90;;;;;;;;;;4885941;29;20084;-92
2024/01/13 10:26:00;;;;;;;25.52;19.77;;;;;;;;;;4885750;29;20037;-96
2024/01/13 10:28:27;;;;;;;40.75;24.77;;;;;;;;;;4887769;29;20032;-95
2024/01/13 10:30:53;;;;;;;23.15;19.23;;;;;;;;;;4885952;29;20040;-94
2024/01/13 10:33:26;;;;;;;21.90;16.65;;;;;;;;;;4882193;29;20028;-95
2024/01/13 10:35:53;;;;;;;25.73;17.07;;;;;;;;;;4865142;29;20136;-92
2024/01/13 10:38:19;;;;;;;26.10;20.10;;;;;;;;;;4866610;29;20025;-96
2024/01/13 10:40:46;;;;;;;28.48;20.30;;;;;;;;;;4866542;29;20100;-93
2024/01/13 10:43:15;;;;;;;27.00;19.20;;;;;;;;;;4883689;29;20024;-95
2024/01/13 10:45:44;;;;;;;28.48;19.98;;;;;;;;;;4876404;29;20093;-94
2024/01/13 10:48:17;;;;;;;26.95;20.52;;;;;;;;;;4886094;29;20040;-93
2024/01/13 10:50:47;;;;;;;23.30;19.33;;;;;;;;;;4883835;29;20096;-94
2024/01/13 10:53:22;;;;;;;26.17;21.83;;;;;;;;;;4883662;29;20040;-94
2024/01/13 10:55:49;;;;;;;30.63;21.90;;;;;;;;;;4884394;29;20080;-93
2024/01/13 10:58:17;;;;;;;31.92;22.23;;;;;;;;;;4883855;29;20040;-94
2024/01/13 11:00:44;;;;;;;33.33;24.00;;;;;;;;;;4881285;29;20021;-96
2024/01/13 11:03:15;;;;;;;32.22;24.17;;;;;;;;;;4871880;29;20040;-91
2024/01/13 11:05:41;;;;;;;32.80;22.85;;;;;;;;;;4885298;29;20032;-96
2024/01/13 11:08:08;;;;;;;27.63;19.33;;;;;;;;;;4990504;23;20060;-96
2024/01/13 11:10:35;;;;;;;29.88;21.55;;;;;;;;;;4866338;29;20060;-94
2024/01/13 11:13:20;;;;;;;28.55;21.85;;;;;;;;;;4874528;29;20032;-92
2024/01/13 11:15:53;;;;;;;31.05;20.25;;;;;;;;;;4899257;29;20037;-93
2024/01/13 11:18:20;;;;;;;30.23;21.25;;;;;;;;;;4901431;29;20028;-95
2024/01/13 11:21:09;;;;;;;27.25;20.30;;;;;;;;;;4891827;29;20036;-96
2024/01/13 11:24:09;;;;;;;31.52;20.42;;;;;;;;;;4889236;29;20036;-96
2024/01/13 11:27:06;;;;;;;27.83;20.17;;;;;;;;;;4852068;29;20036;-95
2024/01/13 11:32:33;;;;;;;27.40;19.58;;;;;;;;;;4832110;29;20065;-96
2024/01/13 11:35:15;;;;;;;26.48;19.88;;;;;;;;;;4840639;29;20500;-95
2024/01/13 11:37:54;;;;;;;26.70;19.15;;;;;;;;;;4849454;29;20041;-95
2024/01/13 11:40:21;;;;;;;25.67;20.98;;;;;;;;;;4855344;29;20056;-96
2024/01/13 11:43:26;;;;;;;29.60;19.42;;;;;;;;;;4888503;29;20033;-94
2024/01/13 11:46:03;;;;;;;31.02;19.35;;;;;;;;;;4847999;29;20060;-95
2024/01/13 11:48:58;;;;;;;26.75;19.98;;;;;;;;;;4855620;29;20128;-93
2024/01/13 11:52:26;;;;;;;25.25;19.25;;;;;;;;;;5193507;23;20180;-96
2024/01/13 12:03:56;;;;;;;23.75;19.33;;;;;;;;;;4832897;29;20035;-96
2024/01/13 12:06:34;;;;;;;26.80;20.20;;;;;;;;;;4854008;29;20041;-94
2024/01/13 12:09:00;;;;;;;33.53;19.42;;;;;;;;;;4904166;23;20112;-92
2024/01/13 12:11:27;;;;;;;23.63;17.35;;;;;;;;;;4866307;29;20510;-94
2024/01/13 12:13:53;;;;;;;25.02;21.40;;;;;;;;;;4849379;29;20065;-96
2024/01/13 12:16:19;;;;;;;23.80;21.38;;;;;;;;;;4864105;29;20060;-96
2024/01/13 12:18:46;;;;;;;24.15;20.13;;;;;;;;;;4864155;29;20025;-92
2024/01/13 12:21:14;;;;;;;24.42;21.98;;;;;;;;;;4864271;29;20033;-94
2024/01/13 12:23:40;;;;;;;20.75;18.65;;;;;;;;;;4864254;29;20048;-92
2024/01/13 12:26:06;;;;;;;26.02;23.58;;;;;;;;;;4864694;29;20037;-92
2024/01/13 12:28:33;;;;;;;24.58;22.27;;;;;;;;;;4865219;29;20451;-94
2024/01/13 12:31:05;;;;;;;26.40;23.65;;;;;;;;;;4883338;29;20060;-94
2024/01/13 12:33:32;;;;;;;24.08;21.55;;;;;;;;;;4884512;29;20032;-95
2024/01/13 12:36:11;;;;;;;22.58;20.50;;;;;;;;;;4870898;29;20053;-96
2024/01/13 12:38:38;;;;;;;23.02;20.70;;;;;;;;;;4878785;29;20035;-96
2024/01/13 12:41:07;;;;;;;28.45;25.52;;;;;;;;;;4875535;29;20123;-96
2024/01/13 12:43:34;;;;;;;24.95;22.40;;;;;;;;;;4868199;29;20487;-91
2024/01/13 12:46:00;;;;;;;22.50;20.20;;;;;;;;;;4868102;29;20037;-96
2024/01/13 12:48:27;;;;;;;23.60;21.40;;;;;;;;;;4870055;29;20033;-94
2024/01/13 12:50:53;;;;;;;22.25;20.05;;;;;;;;;;4869997;29;20051;-95
2024/01/13 12:53:28;;;;;;;25.15;22.85;;;;;;;;;;4869940;29;20033;-95
2024/01/13 12:55:54;;;;;;;22.27;19.92;;;;;;;;;;4872757;29;20029;-96
2024/01/13 12:58:24;;;;;;;24.65;22.15;;;;;;;;;;4890070;29;20068;-96
2024/01/13 13:00:50;;;;;;;24.25;21.95;;;;;;;;;;4902992;29;20058;-93
2024/01/13 13:03:16;;;;;;;26.38;23.77;;;;;;;;;;4895585;29;20085;-95
2024/01/13 13:05:47;;;;;;;23.63;21.33;;;;;;;;;;4885860;29;20040;-94
2024/01/13 13:08:13;;;;;;;25.58;23.17;;;;;;;;;;4868443;29;20039;-94
2024/01/13 13:10:49;;;;;;;26.00;21.20;;;;;;;;;;4869805;29;20093;-95
2024/01/13 13:13:36;;;;;;;24.42;21.98;;;;;;;;;;4876057;29;20100;-96
2024/01/13 13:16:05;;;;;;;24.88;22.23;;;;;;;;;;4857397;29;20044;-96
2024/01/13 13:18:37;;;;;;;28.25;25.38;;;;;;;;;;4871651;29;20037;-95
2024/01/13 13:21:03;;;;;;;28.10;25.15;;;;;;;;;;4868146;29;20029;-96
2024/01/13 13:23:33;;;;;;;25.60;23.10;;;;;;;;;;4868284;29;20112;-96
2024/01/13 13:26:03;;;;;;;25.55;22.15;;;;;;;;;;4878692;29;20055;-96
2024/01/13 13:28:46;;;;;;;27.08;24.25;;;;;;;;;;4875678;29;20029;-96
2024/01/13 13:31:12;;;;;;;24.38;21.73;;;;;;;;;;4868113;29;20049;-95
2024/01/13 13:33:41;;;;;;;28.67;24.35;;;;;;;;;;4868407;29;20029;-96
2024/01/13 13:36:08;;;;;;;24.10;20.85;;;;;;;;;;4868395;29;20033;-95
2024/01/13 13:38:36;;;;;;;25.88;22.35;;;;;;;;;;4868233;29;20048;-95
2024/01/13 13:41:03;;;;;;;24.70;21.92;;;;;;;;;;4867023;29;20093;-96
2024/01/13 13:43:30;;;;;;;25.05;22.08;;;;;;;;;;4866536;29;20084;-96
2024/01/13 13:45:56;;;;;;;27.92;20.63;;;;;;;;;;4866689;29;20021;-95
2024/01/13 13:48:23;;;;;;;28.23;20.02;;;;;;;;;;4867834;29;20057;-96
2024/01/13 13:50:50;;;;;;;31.65;22.77;;;;;;;;;;4873254;29;20097;-96
2024/01/13 13:53:17;;;;;;;23.75;18.63;;;;;;;;;;4886427;29;20048;-95
2024/01/13 13:55:43;;;;;;;26.02;18.60;;;;;;;;;;4887499;29;20029;-96
2024/01/13 13:58:11;;;;;;;26.55;19.52;;;;;;;;;;4892726;29;20049;-96
2024/01/13 14:00:37;;;;;;;24.23;18.70;;;;;;;;;;4878170;29;20040;-96
2024/01/13 14:03:04;;;;;;;25.52;20.30;;;;;;;;;;4885809;29;20107;-93
2024/01/13 14:05:31;;;;;;;26.65;17.25;;;;;;;;;;4884993;29;20084;-94
2024/01/13 14:07:57;;;;;;;27.42;16.02;;;;;;;;;;4865288;29;20032;-95
2024/01/13 14:10:23;;;;;;;26.23;17.88;;;;;;;;;;4886368;29;20060;-95
2024/01/13 14:13:10;;;;;;;26.75;17.75;;;;;;;;;;4884104;29;20024;-96
2024/01/13 14:15:44;;;;;;;24.67;15.63;;;;;;;;;;4884134;29;20033;-96
2024/01/13 14:18:10;;;;;;;26.38;15.88;;;;;;;;;;4867482;29;20039;-96
2024/01/13 14:20:37;;;;;;;25.20;15.95;;;;;;;;;;4866604;29;20066;-94
2024/01/13 14:23:03;;;;;;;24.05;15.13;;;;;;;;;;4865953;29;20506;-92
2024/01/13 14:25:29;;;;;;;26.80;14.95;;;;;;;;;;4866609;29;20060;-96
2024/01/13 14:27:59;;;;;;;21.83;15.52;;;;;;;;;;4866675;29;20033;-93
2024/01/13 14:30:25;;;;;;;25.63;15.35;;;;;;;;;;4866095;29;20040;-93
2024/01/13 14:33:12;;;;;;;26.45;15.93;;;;;;;;;;4867628;29;20097;-95
2024/01/13 14:35:56;;;;;;;27.05;16.35;;;;;;;;;;4828974;29;20040;-96
2024/01/13 14:38:30;;;;;;;27.70;15.55;;;;;;;;;;4877469;29;20049;-96
2024/01/13 14:40:59;;;;;;;;;;;;;;;;;;4884566;29;20025;-94
2024/01/13 14:43:31;;;;;;;29.98;15.13;;;;;;;;;;4987052;23;19955;-93
2024/01/13 14:46:00;;;;;;;24.95;14.05;;;;;;;;;;4862826;29;20041;-92
2024/01/13 14:51:20;;;;;;;28.67;15.75;;;;;;;;;;4872014;29;20053;-95
2024/01/13 14:53:49;;;;;;;27.55;15.70;;;;;;;;;;4864842;29;20028;-91
2024/01/13 14:56:16;;;;;;;29.70;16.65;;;;;;;;;;4882490;29;20048;-95
2024/01/13 14:59:07;;;;;;;28.10;16.13;;;;;;;;;;4862543;29;20112;-92
2024/01/13 15:01:33;;;;;;;29.52;15.82;;;;;;;;;;4855008;29;20025;-92
2024/01/13 15:04:21;;;;;;;28.48;16.13;;;;;;;;;;4846841;29;20034;-95
2024/01/13 15:06:46;;;;;;;29.65;15.45;;;;;;;;;;4863022;29;20025;-95
2024/01/13 15:09:12;;;;;;;29.50;16.48;;;;;;;;;;4846407;29;20037;-91
2024/01/13 15:11:38;;;;;;;29.27;16.20;;;;;;;;;;4855671;29;20065;-91
2024/01/13 15:14:04;;;;;;;28.02;15.82;;;;;;;;;;4864716;29;20522;-93
2024/01/13 15:16:34;;;;;;;31.77;16.70;;;;;;;;;;4864759;29;20033;-95